Time;durP1;ratioP1;P1;durP2;ratioP2;P2;SDS_P1;SDS_P2;PMS_P1;PMS_P2;Temp;Humidity;BMP_temperature;BMP_pressure;BME280_temperature;BME280_humidity;BME280_pressure;Samples;Min_cycle;Max_cycle;Signal;HPM_P1;HPM_P2
2021/09/05 00:03:51;;;;;;;;;;;16.10;99.90;;;15.13;86.79;95836.53;10403193;28;2265;-82
2021/09/05 00:08:54;;;;;;;;;;;16.10;99.90;;;14.46;90.03;95855.03;10416287;28;2211;-79
2021/09/05 00:13:56;;;;;;;;;;;15.90;99.90;;;14.09;93.52;95856.69;10404096;28;2240;-82
2021/09/05 00:19:19;;;;;;;;;;;15.30;99.90;;;14.41;92.11;95853.22;10400215;28;1963;-78
2021/09/05 00:24:42;;;;;;;;;;;15.20;99.90;;;14.25;92.62;95859.94;10405923;28;2041;-80
2021/09/05 00:30:06;;;;;;;;;;;15.30;99.90;;;14.24;92.89;95858.34;10402639;28;1949;-80
2021/09/05 00:35:09;;;;;;;;;;;15.20;99.90;;;14.19;92.43;95861.16;10416065;28;2128;-80
2021/09/05 00:40:12;;;;;;;;;;;15.20;99.90;;;14.28;91.31;95859.38;10414602;28;2034;-79
2021/09/05 00:45:15;;;;;;;;;;;15.20;99.90;;;14.25;91.00;95859.94;10414800;28;2203;-79
2021/09/05 00:50:17;;;;;;;;;;;15.30;99.90;;;14.23;91.15;95852.13;10414687;28;2104;-80
2021/09/05 00:55:20;;;;;;;;;;;15.30;99.90;;;14.30;90.58;95852.56;10402383;28;2181;-79
2021/09/05 01:00:25;;;;;;;;;;;15.20;99.90;;;14.53;88.94;95860.91;10398653;28;2077;-80
2021/09/05 01:05:29;;;;;;;;;;;15.40;99.90;;;14.49;88.99;95859.88;10400813;28;2020;-80
2021/09/05 01:10:32;;;;;;;;;;;15.40;99.90;;;14.55;88.50;95870.31;10400228;28;2134;-79
2021/09/05 01:15:37;;;;;;;;;;;15.40;99.90;;;14.46;88.80;95865.84;10400505;28;2096;-80
2021/09/05 01:20:43;;;;;;;;;;;15.40;99.90;;;14.48;88.22;95859.06;10407491;28;2115;-79
2021/09/05 01:25:45;;;;;;;;;;;15.40;99.90;;;14.50;88.48;95862.28;10405491;28;2138;-80
2021/09/05 01:30:48;;;;;;;;;;;15.40;99.90;;;14.52;88.21;95857.38;10419492;28;2277;-79
2021/09/05 01:35:51;;;;;;;;;;;15.40;99.90;;;14.37;88.75;95865.69;10394073;28;2151;-80
2021/09/05 01:40:54;;;;;;;;;;;15.40;99.90;;;14.41;88.54;95869.44;10403421;28;2028;-80
2021/09/05 01:45:57;;;;;;;;;;;15.40;99.90;;;14.39;88.29;95871.63;10406545;28;2178;-80
2021/09/05 01:51:00;;;;;;;;;;;15.30;99.90;;;14.17;89.38;95872.25;10406073;28;2055;-80
2021/09/05 01:56:03;;;;;;;;;;;15.20;99.90;;;14.14;89.10;95878.25;10408793;28;2134;-80
2021/09/05 02:01:06;;;;;;;;;;;15.10;99.90;;;14.24;88.58;95880.78;10416573;28;1976;-80
2021/09/05 02:06:09;;;;;;;;;;;15.10;99.90;;;14.20;89.16;95887.88;10404842;28;2201;-78
2021/09/05 02:11:12;;;;;;;;;;;15.10;99.90;;;14.23;88.82;95891.88;10404471;28;2063;-79
2021/09/05 02:16:15;;;;;;;;;;;15.10;99.90;;;14.23;88.70;95889.19;10409736;28;1700;-78
2021/09/05 02:21:18;;;;;;;;;;;15.10;99.90;;;14.20;88.98;95884.38;10412076;28;2128;-80
2021/09/05 02:26:21;;;;;;;;;;;15.10;99.90;;;14.12;89.43;95890.44;10417618;28;2096;-80
2021/09/05 02:31:23;;;;;;;;;;;15.00;99.90;;;14.02;90.00;95892.19;10427050;28;2159;-81
2021/09/05 02:36:27;;;;;;;;;;;15.00;99.90;;;14.03;89.43;95895.69;10436616;28;2127;-79
2021/09/05 02:41:30;;;;;;;;;;;14.90;99.90;;;13.82;90.54;95883.56;10401124;28;1943;-80
2021/09/05 02:46:32;;;;;;;;;;;14.80;99.90;;;13.83;90.12;95899.50;10412186;28;2223;-79
2021/09/05 02:51:37;;;;;;;;;;;14.70;99.90;;;13.92;89.23;95900.44;10395922;28;2139;-81
2021/09/05 02:56:40;;;;;;;;;;;14.80;99.90;;;13.72;90.57;95900.72;10412300;28;2131;-81
2021/09/05 03:01:43;;;;;;;;;;;14.70;99.90;;;13.70;90.76;95892.09;10417683;28;2151;-81
2021/09/05 03:06:46;;;;;;;;;;;14.70;99.90;;;13.78;90.60;95894.16;10419633;28;2139;-79
2021/09/05 03:11:49;;;;;;;;;;;14.70;99.90;;;13.81;89.59;95893.59;10420545;28;1961;-78
2021/09/05 03:16:52;;;;;;;;;;;14.70;99.90;;;13.71;90.02;95893.72;10407579;28;2613;-79
2021/09/05 03:21:55;;;;;;;;;;;14.70;99.90;;;13.80;89.75;95894.66;10423210;28;2173;-79
2021/09/05 03:26:58;;;;;;;;;;;14.70;99.90;;;13.81;89.54;95912.50;10424718;28;1453;-83
2021/09/05 03:32:00;;;;;;;;;;;14.70;99.90;;;13.84;89.74;95919.22;10398674;28;2237;-80
2021/09/05 03:37:03;;;;;;;;;;;14.70;99.90;;;13.59;90.72;95920.34;10401507;28;2092;-81
2021/09/05 03:42:06;;;;;;;;;;;14.60;99.90;;;13.59;90.48;95923.03;10399671;28;2214;-81
2021/09/05 03:47:09;;;;;;;;;;;14.60;99.90;;;13.56;90.66;95924.44;10404531;28;2218;-80
2021/09/05 03:52:13;;;;;;;;;;;14.50;99.90;;;13.60;90.69;95919.22;10398719;28;2085;-80
2021/09/05 03:57:16;;;;;;;;;;;14.50;99.90;;;13.61;90.50;95920.84;10397968;28;2155;-80
2021/09/05 04:02:21;;;;;;;;;;;14.50;99.90;;;13.52;90.65;95915.28;10396814;28;2027;-78
2021/09/05 04:07:25;;;;;;;;;;;14.50;99.90;;;13.43;91.04;95920.53;10393085;28;2134;-80
2021/09/05 04:12:28;;;;;;;;;;;14.50;99.90;;;13.48;90.37;95916.94;10396986;28;2206;-77
2021/09/05 04:17:30;;;;;;;;;;;14.40;99.90;;;13.42;90.48;95918.91;10402075;28;2118;-78
2021/09/05 04:22:33;;;;;;;;;;;14.40;99.90;;;13.27;91.34;95927.16;10395562;28;2055;-80
2021/09/05 04:27:37;;;;;;;;;;;14.30;99.90;;;13.36;90.87;95920.06;10397815;28;2163;-80
2021/09/05 04:32:40;;;;;;;;;;;14.30;99.90;;;13.43;90.28;95917.81;10401536;28;2155;-78
2021/09/05 04:37:42;;;;;;;;;;;14.30;99.90;;;13.40;90.37;95931.88;10423951;28;1888;-79
2021/09/05 04:42:45;;;;;;;;;;;14.30;99.90;;;13.19;91.56;95938.56;10412017;28;2029;-79
2021/09/05 04:47:48;;;;;;;;;;;14.30;99.90;;;13.15;92.46;95945.63;10405907;28;1899;-78
2021/09/05 04:52:51;;;;;;;;;;;14.10;99.90;;;13.34;90.81;95953.81;10406620;28;2103;-81
2021/09/05 04:57:54;;;;;;;;;;;14.20;99.90;;;13.25;91.45;95962.56;10399050;28;1340;-79
2021/09/05 05:02:59;;;;;;;;;;;14.20;99.90;;;13.44;90.17;95968.03;10397381;28;2032;-81
2021/09/05 05:08:02;;;;;;;;;;;14.30;99.90;;;13.25;91.71;95967.16;10392825;28;1430;-82
2021/09/05 05:13:05;;;;;;;;;;;14.30;99.90;;;13.35;91.85;95972.44;10416954;28;2200;-80
2021/09/05 05:18:08;;;;;;;;;;;14.30;99.90;;;13.51;90.63;95979.28;10427682;28;2089;-82
2021/09/05 05:23:11;;;;;;;;;;;14.40;99.90;;;13.68;89.93;95988.84;10409495;28;2244;-81
2021/09/05 05:28:14;;;;;;;;;;;14.50;99.90;;;13.90;89.03;95983.69;10411513;28;2118;-80
2021/09/05 05:33:17;;;;;;;;;;;14.60;99.90;;;14.18;87.74;95987.38;10405460;28;2165;-82
2021/09/05 05:38:20;;;;;;;;;;;14.90;99.90;;;14.45;86.31;95986.75;10420649;28;2114;-81
2021/09/05 05:43:22;;;;;;;;;;;15.10;99.90;;;14.75;84.71;95993.63;10405774;28;2069;-81
2021/09/05 05:48:25;;;;;;;;;;;15.40;99.90;;;14.88;84.42;96000.19;10416008;28;2211;-82
2021/09/05 05:53:28;;;;;;;;;;;15.70;99.90;;;14.98;84.17;96004.66;10411727;28;2225;-78
2021/09/05 05:58:31;;;;;;;;;;;15.80;99.90;;;14.72;86.31;95994.22;10429885;28;2130;-80
2021/09/05 06:03:49;;;;;;;;;;;15.80;99.90;;;15.13;84.49;95994.34;10437513;28;2091;-81
2021/09/05 06:08:52;;;;;;;;;;;15.90;99.90;;;15.19;84.19;95986.16;10417027;28;2141;-78
2021/09/05 06:13:55;;;;;;;;;;;16.10;99.90;;;15.46;82.47;95996.22;10417100;28;2212;-78
2021/09/05 06:18:58;;;;;;;;;;;16.20;99.90;;;15.68;81.88;95999.91;10414351;28;1907;-79
2021/09/05 06:24:01;;;;;;;;;;;16.40;99.90;;;15.85;81.19;96004.75;10414787;28;2076;-79
2021/09/05 06:29:04;;;;;;;;;;;16.50;99.90;;;15.98;80.26;96011.25;10420212;28;2200;-79
2021/09/05 06:34:06;;;;;;;;;;;16.60;99.90;;;15.91;81.00;96010.88;10412663;28;2172;-78
2021/09/05 06:39:10;;;;;;;;;;;16.60;99.90;;;16.23;78.89;96014.56;10409652;28;2159;-78
2021/09/05 06:44:12;;;;;;;;;;;16.80;99.90;;;16.14;80.33;96019.88;10405609;28;2137;-78
2021/09/05 06:49:15;;;;;;;;;;;16.70;99.90;;;16.38;78.67;96022.38;10407991;28;2202;-79
2021/09/05 06:54:18;;;;;;;;;;;16.90;99.90;;;16.49;78.19;96021.84;10405037;28;2142;-78
2021/09/05 06:59:21;;;;;;;;;;;17.10;99.90;;;16.86;77.03;96016.41;10406401;28;2065;-79
2021/09/05 07:04:24;;;;;;;;;;;17.30;99.90;;;16.99;75.22;96024.53;10404257;28;2193;-80
2021/09/05 07:09:27;;;;;;;;;;;17.50;99.90;;;17.19;75.11;96022.44;10408621;28;2088;-80
2021/09/05 07:14:29;;;;;;;;;;;17.70;99.90;;;17.42;72.76;96028.63;10404006;28;2132;-79
2021/09/05 07:19:32;;;;;;;;;;;17.90;99.90;;;17.71;72.27;96031.72;10405836;28;2151;-81
2021/09/05 07:24:35;;;;;;;;;;;18.10;99.90;;;17.90;71.32;96033.41;10408027;28;2073;-81
2021/09/05 07:29:38;;;;;;;;;;;18.30;99.90;;;18.15;69.62;96035.41;10405014;28;2144;-80
2021/09/05 07:34:41;;;;;;;;;;;18.40;99.90;;;18.13;70.59;96036.81;10408442;28;2191;-81
2021/09/05 07:39:44;;;;;;;;;;;18.60;99.90;;;18.36;68.75;96041.88;10405664;28;2112;-81
2021/09/05 07:44:47;;;;;;;;;;;18.90;99.90;;;18.54;68.76;96036.47;10407170;28;2275;-81
2021/09/05 07:49:50;;;;;;;;;;;19.00;99.90;;;18.87;66.29;96040.38;10400743;28;2560;-82
2021/09/05 07:54:54;;;;;;;;;;;19.20;99.90;;;18.86;65.14;96048.88;10409667;28;2105;-80
2021/09/05 07:59:57;;;;;;;;;;;19.30;99.90;;;19.19;64.68;96043.72;10418811;28;2037;-79
2021/09/05 08:05:00;;;;;;;;;;;19.40;99.90;;;18.99;65.25;96049.84;10417522;28;2085;-82
2021/09/05 08:10:03;;;;;;;;;;;19.50;99.90;;;19.35;62.07;96049.50;10410545;28;1183;-80
2021/09/05 08:15:06;;;;;;;;;;;19.70;99.90;;;19.13;61.25;96061.34;10407611;28;2100;-79
2021/09/05 08:20:09;;;;;;;;;;;19.70;99.90;;;19.12;62.20;96059.75;10402984;28;2144;-82
2021/09/05 08:25:12;;;;;;;;;;;19.70;99.90;;;19.55;62.61;96058.91;10401897;28;2030;-81
2021/09/05 08:30:15;;;;;;;;;;;19.90;99.90;;;19.83;61.96;96059.34;10400419;28;1762;-79
2021/09/05 08:35:18;;;;;;;;;;;20.20;99.90;;;19.78;61.79;96064.97;10413653;28;2065;-80
2021/09/05 08:40:21;;;;;;;;;;;20.50;99.90;;;20.08;60.28;96054.94;10423946;28;1840;-84
2021/09/05 08:45:24;;;;;;;;;;;20.70;99.90;;;20.17;60.22;96061.16;10415338;28;2117;-82
2021/09/05 08:50:27;;;;;;;;;;;20.80;99.90;;;20.42;57.78;96054.78;10427464;28;2041;-82
2021/09/05 08:55:30;;;;;;;;;;;20.90;99.90;;;20.50;57.56;96059.41;10408085;28;1952;-82
2021/09/05 09:00:33;;;;;;;;;;;21.00;99.90;;;19.99;57.08;96063.16;10409120;28;1989;-82
2021/09/05 09:05:36;;;;;;;;;;;21.00;99.90;;;20.15;57.46;96063.41;10431579;28;1810;-84
2021/09/05 09:10:39;;;;;;;;;;;21.00;99.90;;;20.21;57.82;96065.63;10434045;28;1993;-83
2021/09/05 09:15:42;;;;;;;;;;;21.00;99.90;;;20.31;58.05;96064.47;10419874;28;2046;-81
2021/09/05 09:20:45;;;;;;;;;;;21.10;99.90;;;20.41;59.45;96064.09;10414185;28;1849;-82
2021/09/05 09:25:48;;;;;;;;;;;21.20;99.90;;;20.10;58.59;96066.31;10430785;28;2190;-82
2021/09/05 09:30:51;;;;;;;;;;;21.10;99.90;;;19.68;59.62;96066.94;10417785;28;1968;-82
2021/09/05 09:35:54;;;;;;;;;;;21.00;99.90;;;20.34;58.23;96063.81;10419561;28;1970;-84
2021/09/05 09:40:57;;;;;;;;;;;21.10;99.90;;;20.37;56.31;96065.88;10436077;28;2077;-82
2021/09/05 09:46:00;;;;;;;;;;;21.40;99.90;;;20.52;56.93;96070.81;10425245;28;2186;-81
2021/09/05 09:51:03;;;;;;;;;;;21.20;99.90;;;20.74;55.79;96066.16;10409189;28;1952;-82
2021/09/05 09:56:06;;;;;;;;;;;21.50;99.90;;;20.67;57.23;96068.63;10407568;28;2451;-81
2021/09/05 10:01:09;;;;;;;;;;;21.50;99.90;;;21.16;54.41;96060.72;10413755;28;1707;-82
2021/09/05 10:06:12;;;;;;;;;;;21.70;99.90;;;21.20;56.01;96061.66;10421155;28;2069;-81
2021/09/05 10:11:15;;;;;;;;;;;21.90;99.90;;;21.30;56.39;96062.06;10416840;28;2062;-83
2021/09/05 10:16:18;;;;;;;;;;;22.10;99.90;;;21.36;57.30;96054.47;10414224;28;1984;-83
2021/09/05 10:21:21;;;;;;;;;;;22.20;99.90;;;20.92;58.42;96056.72;10429233;28;1942;-79
2021/09/05 10:26:23;;;;;;;;;;;22.00;99.90;;;21.18;58.46;96052.97;10417122;28;2067;-81
2021/09/05 10:31:26;;;;;;;;;;;22.00;99.90;;;21.42;57.40;96044.91;10408139;28;2022;-82
2021/09/05 10:36:29;;;;;;;;;;;22.30;99.90;;;21.18;57.97;96047.50;10414035;28;2026;-81
2021/09/05 10:41:32;;;;;;;;;;;22.20;99.90;;;21.28;56.53;96047.94;10409220;28;1877;-80
2021/09/05 10:46:35;;;;;;;;;;;22.10;99.90;;;21.70;56.04;96044.34;10416343;28;2180;-80
2021/09/05 10:51:39;;;;;;;;;;;22.30;99.90;;;21.48;55.47;96035.38;10441081;28;2125;-82
2021/09/05 10:56:43;;;;;;;;;;;22.50;99.90;;;21.34;52.76;96050.47;10427197;28;2049;-84
2021/09/05 11:01:46;;;;;;;;;;;22.40;99.90;;;21.52;53.25;96039.03;10434716;28;1943;-82
2021/09/05 11:06:49;;;;;;;;;;;22.30;99.90;;;21.38;52.01;96044.00;10449082;28;2000;-85
2021/09/05 11:11:52;;;;;;;;;;;22.30;99.90;;;21.56;50.94;96037.22;10439286;28;1959;-84
2021/09/05 11:16:55;;;;;;;;;;;22.50;99.90;;;21.82;51.14;96034.22;10424271;28;2076;-84
2021/09/05 11:21:58;;;;;;;;;;;22.50;99.90;;;21.63;50.55;96042.16;10442771;28;1872;-84
2021/09/05 11:27:01;;;;;;;;;;;22.60;99.90;;;21.78;51.13;96040.69;10464659;28;1927;-84
2021/09/05 11:32:04;;;;;;;;;;;22.60;99.90;;;21.65;51.62;96028.94;10446791;28;1884;-84
2021/09/05 11:37:07;;;;;;;;;;;22.60;99.90;;;21.70;51.61;96036.13;10456330;28;1840;-83
2021/09/05 11:42:10;;;;;;;;;;;22.70;99.90;;;21.62;51.84;96035.06;10438878;28;1814;-83
2021/09/05 11:47:17;;;;;;;;;;;22.60;99.90;;;22.08;50.73;96042.13;10436736;28;2069;-80
2021/09/05 11:52:19;;;;;;;;;;;22.80;99.90;;;21.89;50.48;96054.75;10415430;28;2201;-82
2021/09/05 11:57:22;;;;;;;;;;;22.80;99.90;;;22.00;49.98;96048.47;10408314;28;2033;-83
2021/09/05 12:02:25;;;;;;;;;;;22.70;99.90;;;22.08;46.30;96060.50;10426859;28;2093;-81
2021/09/05 12:07:28;;;;;;;;;;;23.00;99.90;;;22.28;45.99;96058.81;10417007;28;2018;-83
2021/09/05 12:12:31;;;;;;;;;;;23.00;99.90;;;22.32;45.85;96046.03;10430256;28;1954;-82
2021/09/05 12:17:35;;;;;;;;;;;23.10;99.90;;;22.28;47.19;96054.13;10411102;28;2051;-83
2021/09/05 12:22:37;;;;;;;;;;;23.20;99.90;;;22.41;44.40;96054.94;10421452;28;2124;-81
2021/09/05 12:27:40;;;;;;;;;;;23.30;99.90;;;22.39;44.06;96047.06;10411554;28;1974;-83
2021/09/05 12:33:03;;;;;;;;;;;23.20;99.90;;;22.24;42.44;96049.69;10400172;28;1992;-81
2021/09/05 12:38:06;;;;;;;;;;;23.20;99.90;;;22.29;46.33;96046.72;10405388;28;1963;-83
2021/09/05 12:43:09;;;;;;;;;;;23.30;99.90;;;22.31;45.63;96052.66;10407018;28;2016;-83
2021/09/05 12:48:12;;;;;;;;;;;23.20;99.90;;;22.43;46.88;96057.34;10419049;28;2565;-84
2021/09/05 12:53:15;;;;;;;;;;;23.30;99.90;;;22.31;46.29;96058.13;10418864;28;1965;-84
2021/09/05 12:58:22;;;;;;;;;;;23.30;99.90;;;22.51;47.19;96056.41;10438476;28;1998;-84
2021/09/05 13:03:25;;;;;;;;;;;23.30;99.90;;;22.64;46.42;96056.06;10436520;28;2041;-85
2021/09/05 13:08:28;;;;;;;;;;;23.50;99.90;;;22.79;47.22;96045.53;10433006;28;2051;-84
2021/09/05 13:13:31;;;;;;;;;;;23.60;99.90;;;22.35;47.37;96040.69;10423254;28;2077;-86
2021/09/05 13:18:34;;;;;;;;;;;23.40;99.90;;;22.50;47.75;96047.41;10431650;28;1713;-85
2021/09/05 13:23:37;;;;;;;;;;;23.30;99.90;;;22.26;47.21;96047.38;10447116;28;1713;-80
2021/09/05 13:28:39;;;;;;;;;;;23.20;99.90;;;22.46;47.01;96043.75;10437691;28;1893;-83
2021/09/05 13:33:42;;;;;;;;;;;23.20;99.90;;;22.62;45.84;96041.91;10438690;28;2183;-85
2021/09/05 13:38:45;;;;;;;;;;;23.40;99.90;;;22.40;45.45;96023.22;10449273;28;1709;-82
2021/09/05 13:43:48;;;;;;;;;;;23.40;99.90;;;22.63;46.06;96045.44;10439116;28;2051;-82
2021/09/05 13:48:51;;;;;;;;;;;23.40;99.90;;;22.41;44.06;96027.56;10436809;28;1936;-84
2021/09/05 13:53:54;;;;;;;;;;;23.40;99.90;;;22.47;42.77;96023.44;10438546;28;2122;-83
2021/09/05 13:58:57;;;;;;;;;;;23.40;99.90;;;22.56;42.52;96035.06;10422309;28;2050;-83
2021/09/05 14:04:00;;;;;;;;;;;23.40;99.90;;;22.42;42.22;96033.81;10403373;28;2319;-84
2021/09/05 14:09:03;;;;;;;;;;;23.40;99.90;;;22.33;39.79;96042.13;10415415;28;2365;-79
2021/09/05 14:14:06;;;;;;;;;;;23.20;99.90;;;22.36;38.99;96027.78;10426529;28;2301;-82
2021/09/05 14:19:08;;;;;;;;;;;23.20;99.90;;;22.52;39.04;96031.44;10435514;28;2037;-81
2021/09/05 14:24:12;;;;;;;;;;;23.20;99.90;;;22.67;40.03;96032.66;10408841;28;2129;-80
2021/09/05 14:29:18;;;;;;;;;;;23.40;99.90;;;22.62;38.68;96030.94;10407140;28;2057;-81
2021/09/05 14:50:37;;;;;;;;;;;23.30;99.90;;;22.25;38.45;96016.47;10401607;28;1905;-83
2021/09/05 14:55:40;;;;;;;;;;;23.20;99.90;;;22.36;38.04;96014.09;10404400;28;2041;-83
2021/09/05 15:00:44;;;;;;;;;;;23.20;99.90;;;22.25;37.93;96016.47;10409293;28;2231;-83
2021/09/05 15:06:02;;;;;;;;;;;23.20;99.90;;;22.26;38.62;96018.06;10413780;28;1860;-83
2021/09/05 15:11:07;;;;;;;;;;;23.10;99.90;;;22.27;37.72;96016.94;10406790;28;2121;-82
2021/09/05 15:16:09;;;;;;;;;;;23.10;99.70;;;22.23;38.34;96031.66;10412595;28;2065;-83
2021/09/05 15:21:14;;;;;;;;;;;23.10;99.90;;;21.98;37.95;96019.88;10410553;28;1729;-84
2021/09/05 15:26:19;;;;;;;;;;;23.00;98.90;;;22.04;39.16;96019.28;10410674;28;2040;-84
2021/09/05 15:31:34;;;;;;;;;;;22.90;99.90;;;22.01;39.20;96009.03;10423775;28;2221;-85
2021/09/05 15:52:40;;;;;;;;;;;22.60;99.90;;;21.60;40.76;96010.00;10422052;28;2075;-84
2021/09/05 15:57:45;;;;;;;;;;;22.60;99.90;;;21.58;39.81;96010.34;10429619;28;2102;-80
2021/09/05 16:02:56;;;;;;;;;;;22.50;99.90;;;21.49;39.41;96008.81;10435155;28;2135;-84
2021/09/05 16:18:45;;;;;;;;;;;22.30;99.90;;;21.26;41.53;96011.13;10411002;28;1738;-83
2021/09/05 16:23:48;;;;;;;;;;;22.20;99.90;;;21.19;42.81;96016.34;10408247;28;2063;-83
2021/09/05 16:28:51;;;;;;;;;;;22.10;99.90;;;21.09;42.73;96014.81;10407408;28;2069;-83
2021/09/05 16:33:59;;;;;;;;;;;22.00;99.90;;;20.97;42.09;96015.53;10403690;28;1918;-81
2021/09/05 16:44:23;;;;;;;;;;;21.80;99.90;;;20.84;42.73;96026.75;10411897;28;1987;-84
2021/09/05 16:49:26;;;;;;;;;;;21.80;99.90;;;20.69;42.94;96020.75;10413719;28;1751;-82
2021/09/05 16:54:29;;;;;;;;;;;21.60;99.90;;;20.66;43.22;96026.06;10404598;28;2053;-81
2021/09/05 16:59:32;;;;;;;;;;;21.60;99.90;;;20.53;43.64;96027.91;10426010;28;1680;-81
2021/09/05 17:04:35;;;;;;;;;;;21.40;99.90;;;20.38;44.58;96028.47;10406173;28;1859;-81
2021/09/05 17:09:38;;;;;;;;;;;21.40;99.90;;;20.21;45.16;96029.34;10409334;28;1656;-82
2021/09/05 17:14:40;;;;;;;;;;;21.20;99.90;;;20.16;45.89;96030.31;10411026;28;2125;-81
2021/09/05 17:19:43;;;;;;;;;;;21.10;99.90;;;19.98;46.53;96039.75;10392549;28;2352;-81
2021/09/05 17:24:46;;;;;;;;;;;21.00;99.90;;;19.69;47.78;96048.66;10421288;28;2341;-80
2021/09/05 17:29:49;;;;;;;;;;;20.90;99.90;;;19.53;48.53;96048.34;10421788;28;2026;-82
2021/09/05 17:34:52;;;;;;;;;;;20.70;99.90;;;19.42;49.54;96057.97;10441377;28;2186;-82
2021/09/05 17:39:55;;;;;;;;;;;20.50;99.90;;;19.25;50.57;96069.69;10423597;28;1893;-83
2021/09/05 17:44:59;;;;;;;;;;;20.30;99.90;;;19.05;51.61;96067.63;10413860;28;1792;-82
2021/09/05 17:50:02;;;;;;;;;;;20.20;99.90;;;18.84;52.24;96070.97;10420948;28;2278;-81
2021/09/05 17:55:06;;;;;;;;;;;20.00;99.90;;;18.68;52.98;96080.72;10429389;28;2278;-81
2021/09/05 18:00:09;;;;;;;;;;;19.80;99.90;;;18.49;53.74;96082.88;10412824;28;2041;-81
2021/09/05 18:05:12;;;;;;;;;;;19.60;99.90;;;18.26;54.97;96085.72;10453408;28;1877;-82
2021/09/05 18:10:15;;;;;;;;;;;19.50;99.90;;;18.23;55.17;96091.78;10447360;28;2105;-84
2021/09/05 18:15:18;;;;;;;;;;;19.30;99.90;;;18.05;55.67;96107.22;10432122;28;1899;-83
2021/09/05 18:20:21;;;;;;;;;;;19.20;99.90;;;17.97;56.47;96099.81;10447278;28;1411;-84
2021/09/05 18:25:25;;;;;;;;;;;19.10;99.90;;;17.87;57.35;96108.22;10425998;28;1367;-82
2021/09/05 18:30:31;;;;;;;;;;;18.90;99.90;;;17.58;58.48;96111.41;10409851;28;1586;-82
2021/09/05 18:35:54;;;;;;;;;;;18.80;99.90;;;17.37;59.39;96124.69;10414705;28;1973;-85
2021/09/05 18:40:56;;;;;;;;;;;18.60;99.90;;;17.33;60.00;96122.88;10415451;28;1502;-83
2021/09/05 18:45:59;;;;;;;;;;;18.50;99.90;;;17.12;61.61;96128.81;10419722;28;1695;-83
2021/09/05 18:51:02;;;;;;;;;;;18.30;99.90;;;17.03;62.79;96136.06;10420351;28;1609;-81
2021/09/05 18:56:05;;;;;;;;;;;18.20;99.90;;;16.84;62.77;96143.53;10425160;28;1971;-81
2021/09/05 19:01:10;;;;;;;;;;;18.00;99.90;;;16.73;64.03;96142.94;10405352;28;1743;-83
2021/09/05 19:06:13;;;;;;;;;;;17.90;99.90;;;16.58;64.68;96145.94;10408462;28;2101;-83
2021/09/05 19:11:16;;;;;;;;;;;17.80;99.90;;;16.66;65.53;96156.88;10446008;28;1881;-83
2021/09/05 19:16:19;;;;;;;;;;;17.80;99.90;;;16.53;66.63;96149.56;10416083;28;2231;-82
2021/09/05 19:21:23;;;;;;;;;;;17.70;99.90;;;16.56;65.72;96148.97;10407962;28;2074;-80
2021/09/05 19:26:26;;;;;;;;;;;17.70;99.90;;;16.52;66.68;96150.66;10408788;28;1502;-81
2021/09/05 19:31:29;;;;;;;;;;;17.60;99.90;;;16.49;66.13;96151.28;10408657;28;2262;-81
2021/09/05 19:36:32;;;;;;;;;;;17.50;99.90;;;16.22;67.99;96154.78;10412891;28;2040;-80
2021/09/05 19:41:35;;;;;;;;;;;17.40;99.90;;;16.27;68.63;96153.88;10423866;28;2148;-80
2021/09/05 19:46:38;;;;;;;;;;;17.30;99.90;;;16.26;69.47;96152.28;10425277;28;2065;-81
2021/09/05 19:51:41;;;;;;;;;;;17.30;99.90;;;16.33;68.64;96155.38;10412926;28;1996;-83
2021/09/05 19:56:44;;;;;;;;;;;17.30;99.90;;;16.34;69.39;96157.00;10417509;28;2637;-83
2021/09/05 20:01:47;;;;;;;;;;;17.30;99.90;;;16.41;69.38;96163.66;10421079;28;2010;-81
2021/09/05 20:06:50;;;;;;;;;;;17.30;99.90;;;16.44;68.97;96162.25;10416648;28;1853;-79
2021/09/05 20:11:53;;;;;;;;;;;17.40;99.90;;;16.46;69.81;96160.00;10421273;28;2110;-81
2021/09/05 20:16:56;;;;;;;;;;;17.40;99.90;;;16.40;69.76;96161.22;10426221;28;2045;-80
2021/09/05 20:21:59;;;;;;;;;;;17.40;99.90;;;16.35;70.07;96164.03;10410247;28;2081;-82
2021/09/05 20:27:02;;;;;;;;;;;17.40;99.90;;;16.39;70.81;96170.47;10412964;28;2042;-81
2021/09/05 20:32:05;;;;;;;;;;;17.30;99.90;;;16.41;70.67;96176.38;10420574;28;1825;-82
2021/09/05 20:37:07;;;;;;;;;;;17.30;99.90;;;16.45;70.49;96170.06;10408018;28;2255;-83
2021/09/05 20:42:11;;;;;;;;;;;17.40;99.90;;;16.39;70.50;96175.91;10412516;28;1830;-82
2021/09/05 20:47:14;;;;;;;;;;;17.40;99.90;;;16.15;71.10;96182.28;10413456;28;1829;-81
2021/09/05 20:52:17;;;;;;;;;;;17.20;99.90;;;16.15;71.87;96176.88;10419430;28;2093;-83
2021/09/05 20:57:20;;;;;;;;;;;17.20;99.90;;;16.04;71.96;96185.50;10420251;28;2148;-81
2021/09/05 21:02:23;;;;;;;;;;;17.10;99.90;;;16.13;71.92;96191.84;10420551;28;1919;-82
2021/09/05 21:07:26;;;;;;;;;;;17.10;99.90;;;16.01;72.14;96195.03;10412619;28;2140;-83
2021/09/05 21:12:28;;;;;;;;;;;17.00;99.90;;;16.15;71.82;96197.75;10404586;28;1907;-81
2021/09/05 21:17:31;;;;;;;;;;;17.10;99.90;;;16.16;71.92;96194.78;10403046;28;2018;-81
2021/09/05 21:22:34;;;;;;;;;;;17.10;99.90;;;15.99;72.33;96191.81;10409817;28;2098;-82
2021/09/05 21:27:37;;;;;;;;;;;17.00;99.90;;;15.89;73.99;96186.56;10405336;28;2048;-81
2021/09/05 21:32:40;;;;;;;;;;;16.90;99.90;;;15.80;74.84;96186.44;10403145;28;1940;-81
2021/09/05 21:37:43;;;;;;;;;;;16.90;99.90;;;15.67;75.08;96189.91;10409143;28;2188;-81
2021/09/05 21:42:46;;;;;;;;;;;16.70;99.90;;;15.83;74.81;96188.53;10417382;28;2026;-83
2021/09/05 21:47:49;;;;;;;;;;;16.70;99.90;;;15.87;75.14;96196.91;10404209;28;2020;-82
2021/09/05 21:52:52;;;;;;;;;;;16.80;99.90;;;15.91;74.93;96196.03;10406443;28;2096;-81
2021/09/05 21:57:55;;;;;;;;;;;16.80;99.90;;;15.77;75.96;96194.34;10417569;28;2041;-80
2021/09/05 22:02:58;;;;;;;;;;;16.70;99.90;;;15.76;75.64;96190.84;10401457;28;2088;-81
2021/09/05 22:08:01;;;;;;;;;;;16.70;99.90;;;15.71;75.82;96198.22;10407888;28;1952;-83
2021/09/05 22:13:04;;;;;;;;;;;16.70;99.90;;;15.72;76.05;96205.28;10437464;28;1857;-82
2021/09/05 22:18:07;;;;;;;;;;;16.60;99.90;;;15.65;76.59;96203.75;10426418;28;1967;-81
2021/09/05 22:23:10;;;;;;;;;;;16.60;99.90;;;15.58;77.08;96197.84;10405847;28;2049;-83
2021/09/05 22:28:13;;;;;;;;;;;16.60;99.90;;;15.60;77.28;96203.81;10419859;28;2088;-83
2021/09/05 22:33:16;;;;;;;;;;;16.50;99.90;;;15.60;77.48;96206.50;10435901;28;1728;-81
2021/09/05 22:38:21;;;;;;;;;;;16.50;99.90;;;15.56;77.70;96202.78;10440069;28;1959;-81
2021/09/05 22:43:24;;;;;;;;;;;16.50;99.90;;;15.47;78.39;96204.56;10423746;28;2041;-82
2021/09/05 22:48:27;;;;;;;;;;;16.40;99.90;;;15.47;78.19;96199.13;10434647;28;2026;-81
2021/09/05 22:53:31;;;;;;;;;;;16.40;99.90;;;15.47;78.49;96204.56;10415029;28;2344;-80
2021/09/05 22:58:34;;;;;;;;;;;16.40;99.90;;;15.43;78.62;96203.53;10411027;28;2065;-83
2021/09/05 23:03:36;;;;;;;;;;;16.30;99.90;;;15.39;79.12;96205.19;10400029;28;2074;-83
2021/09/05 23:08:39;;;;;;;;;;;16.40;99.90;;;15.35;79.71;96209.59;10413949;28;2030;-81
2021/09/05 23:13:42;;;;;;;;;;;16.30;99.90;;;15.27;80.12;96204.81;10412458;28;2170;-82
2021/09/05 23:18:45;;;;;;;;;;;16.20;99.90;;;15.29;80.38;96219.69;10408523;28;2326;-83
2021/09/05 23:23:48;;;;;;;;;;;16.20;99.90;;;15.27;80.40;96211.06;10406006;28;2069;-82
2021/09/05 23:28:51;;;;;;;;;;;16.20;99.90;;;15.24;80.47;96214.34;10421988;28;2256;-82
2021/09/05 23:33:54;;;;;;;;;;;16.20;99.90;;;15.22;80.95;96207.63;10423353;28;1979;-81
2021/09/05 23:38:57;;;;;;;;;;;16.20;99.90;;;15.13;81.19;96210.97;10397613;28;1960;-83
2021/09/05 23:44:00;;;;;;;;;;;16.10;99.90;;;15.03;81.97;96210.31;10406517;28;1876;-82
2021/09/05 23:49:03;;;;;;;;;;;16.00;99.90;;;15.04;82.17;96218.16;10401886;28;1967;-81
2021/09/05 23:54:06;;;;;;;;;;;16.00;99.90;;;15.06;82.17;96215.13;10399544;28;2215;-82
2021/09/05 23:59:09;;;;;;;;;;;16.00;99.90;;;15.03;82.45;96208.41;10404138;28;2065;-83
